createdAt,value
2019-03-18T00:02:07.738Z,100329.38
2019-03-18T00:04:36.353Z,100327.99
2019-03-18T00:07:05.106Z,100340.36
2019-03-18T00:09:33.738Z,100333.72
2019-03-18T00:12:02.510Z,100336.56
2019-03-18T00:14:31.084Z,100334.70
2019-03-18T00:16:59.852Z,100342.80
2019-03-18T00:19:28.429Z,100343.44
2019-03-18T00:21:57.035Z,100345.00
2019-03-18T00:24:25.586Z,100353.62
2019-03-18T00:26:54.307Z,100355.02
2019-03-18T00:29:22.962Z,100341.34
2019-03-18T00:31:51.576Z,100355.16
2019-03-18T00:34:20.236Z,100365.02
2019-03-18T00:36:49.042Z,100361.13
2019-03-18T00:39:17.600Z,100359.30
2019-03-18T00:41:46.316Z,100357.70
2019-03-18T00:44:14.853Z,100363.25
2019-03-18T00:46:43.491Z,100364.56
2019-03-18T00:49:12.076Z,100359.83
2019-03-18T00:51:40.667Z,100363.86
2019-03-18T00:54:09.201Z,100364.16
2019-03-18T00:56:38.071Z,100361.95
2019-03-18T00:59:06.630Z,100365.94
2019-03-18T01:01:35.584Z,100370.50
2019-03-18T01:04:04.367Z,100362.34
2019-03-18T01:06:33.094Z,100369.13
2019-03-18T01:09:01.630Z,100366.81
2019-03-18T01:11:30.295Z,100372.95
2019-03-18T01:13:58.848Z,100376.14
2019-03-18T01:16:27.411Z,100367.45
2019-03-18T01:18:56.290Z,100376.81
2019-03-18T01:21:24.941Z,100375.14
2019-03-18T01:23:53.651Z,100379.26
2019-03-18T01:26:22.315Z,100376.67
2019-03-18T01:28:51.140Z,100374.94
2019-03-18T01:31:19.698Z,100381.38
2019-03-18T01:33:48.300Z,100375.14
2019-03-18T01:36:16.908Z,100376.14
2019-03-18T01:38:45.464Z,100373.34
2019-03-18T01:41:14.034Z,100374.77
2019-03-18T01:43:42.730Z,100378.84
2019-03-18T01:46:11.400Z,100375.02
2019-03-18T01:48:40.292Z,100368.23
2019-03-18T01:51:08.793Z,100365.72
2019-03-18T01:53:37.488Z,100367.88
2019-03-18T01:56:06.262Z,100367.35
2019-03-18T01:58:34.869Z,100362.69
2019-03-18T02:01:03.533Z,100372.37
2019-03-18T02:03:32.552Z,100370.94
2019-03-18T02:06:01.221Z,100376.05
2019-03-18T02:08:29.845Z,100359.92
2019-03-18T02:10:58.558Z,100360.59
2019-03-18T02:13:27.271Z,100366.40
2019-03-18T02:15:55.985Z,100375.34
2019-03-18T02:18:24.544Z,100369.07
2019-03-18T02:20:53.168Z,100367.49
2019-03-18T02:23:21.734Z,100376.51
2019-03-18T02:25:50.852Z,100380.97
2019-03-18T02:28:19.409Z,100381.34
2019-03-18T02:30:48.129Z,100379.91
2019-03-18T02:33:16.770Z,100380.06
2019-03-18T02:35:45.377Z,100378.98
2019-03-18T02:38:14.030Z,100395.64
2019-03-18T02:40:42.646Z,100404.59
2019-03-18T02:43:11.180Z,100409.02
2019-03-18T02:45:39.834Z,100411.40
2019-03-18T02:48:08.435Z,100421.22
2019-03-18T02:50:37.185Z,100419.91
2019-03-18T02:53:05.755Z,100419.05
2019-03-18T02:55:34.366Z,100421.16
2019-03-18T02:58:03.064Z,100428.27
2019-03-18T03:00:31.904Z,100436.82
2019-03-18T03:03:00.488Z,100435.92
2019-03-18T03:05:29.194Z,100424.55
2019-03-18T03:07:57.828Z,100439.91
2019-03-18T03:10:26.590Z,100441.32
2019-03-18T03:12:55.689Z,100446.82
2019-03-18T03:15:24.270Z,100441.89
2019-03-18T03:17:53.005Z,100449.83
2019-03-18T03:20:21.664Z,100443.59
2019-03-18T03:22:50.388Z,100445.88
2019-03-18T03:25:18.973Z,100442.16
2019-03-18T03:27:47.563Z,100453.09
2019-03-18T03:30:16.213Z,100451.38
2019-03-18T03:32:44.848Z,100452.55
2019-03-18T03:35:13.902Z,100463.09
2019-03-18T03:37:42.735Z,100453.86
2019-03-18T03:40:11.687Z,100459.12
2019-03-18T03:42:40.544Z,100459.73
2019-03-18T03:45:09.214Z,100462.01
2019-03-18T03:47:37.929Z,100461.47
2019-03-18T03:50:06.649Z,100468.72
2019-03-18T03:52:35.247Z,100470.89
2019-03-18T03:55:04.063Z,100480.97
2019-03-18T03:57:32.926Z,100485.26
2019-03-18T04:00:02.422Z,100483.11
2019-03-18T04:02:31.000Z,100482.41
2019-03-18T04:04:59.753Z,100481.56
2019-03-18T04:07:28.478Z,100482.00
2019-03-18T04:09:57.393Z,100492.70
2019-03-18T04:12:26.002Z,100495.22
2019-03-18T04:14:54.728Z,100495.80
2019-03-18T04:17:23.569Z,100506.69
2019-03-18T04:19:52.313Z,100509.71
2019-03-18T04:22:20.872Z,100512.30
2019-03-18T04:24:49.885Z,100511.95
2019-03-18T04:27:18.440Z,100514.94
2019-03-18T04:29:47.059Z,100516.09
2019-03-18T04:32:15.741Z,100516.09
2019-03-18T04:34:44.457Z,100504.84
2019-03-18T04:37:13.006Z,100515.65
2019-03-18T04:39:41.586Z,100517.45
2019-03-18T04:42:10.369Z,100515.91
2019-03-18T04:44:38.963Z,100527.22
2019-03-18T04:47:14.158Z,100530.61
2019-03-18T04:49:38.203Z,100533.40
2019-03-18T04:52:06.799Z,100531.76
2019-03-18T04:54:35.356Z,100533.60
2019-03-18T04:57:03.962Z,100536.83
2019-03-18T04:59:32.613Z,100540.92
2019-03-18T05:02:01.524Z,100541.19
2019-03-18T05:04:30.091Z,100537.33
2019-03-18T05:06:58.672Z,100542.02
2019-03-18T05:09:27.428Z,100551.89
2019-03-18T05:11:56.084Z,100549.34
2019-03-18T05:14:24.624Z,100550.52
2019-03-18T05:16:53.219Z,100554.91
2019-03-18T05:19:21.992Z,100555.55
2019-03-18T05:21:50.596Z,100560.31
2019-03-18T05:24:19.175Z,100574.44
2019-03-18T05:26:47.739Z,100567.23
2019-03-18T05:29:16.317Z,100575.15
2019-03-18T05:31:44.946Z,100586.05
2019-03-18T05:34:13.486Z,100592.61
2019-03-18T05:36:42.132Z,100595.32
2019-03-18T05:39:10.684Z,100592.80
2019-03-18T05:41:39.278Z,100596.67
2019-03-18T05:44:08.219Z,100604.09
2019-03-18T05:46:36.959Z,100618.58
2019-03-18T05:49:05.523Z,100620.97
2019-03-18T05:51:34.218Z,100610.77
2019-03-18T05:54:02.886Z,100626.94
2019-03-18T05:56:31.541Z,100623.77
2019-03-18T05:59:00.206Z,100627.25
2019-03-18T06:01:28.883Z,100630.30
2019-03-18T06:03:57.433Z,100633.86
2019-03-18T06:06:26.034Z,100637.31
2019-03-18T06:08:54.807Z,100644.47
2019-03-18T06:11:23.401Z,100650.17
2019-03-18T06:13:52.055Z,100658.48
2019-03-18T06:16:20.692Z,100658.26
2019-03-18T06:18:49.297Z,100654.59
2019-03-18T06:21:17.929Z,100660.66
2019-03-18T06:23:46.511Z,100664.39
2019-03-18T06:26:15.046Z,100673.82
2019-03-18T06:28:43.741Z,100673.14
2019-03-18T06:31:12.548Z,100670.47
2019-03-18T06:33:41.098Z,100676.04
2019-03-18T06:36:09.730Z,100674.36
2019-03-18T06:38:38.443Z,100672.48
2019-03-18T06:41:06.986Z,100687.47
2019-03-18T06:43:35.863Z,100688.75
2019-03-18T06:46:04.416Z,100688.27
2019-03-18T06:48:33.199Z,100695.25
2019-03-18T06:51:01.958Z,100691.50
2019-03-18T06:53:30.887Z,100700.49
2019-03-18T06:55:59.420Z,100701.22
2019-03-18T06:58:28.148Z,100709.46
2019-03-18T07:00:56.719Z,100712.30
2019-03-18T07:03:25.298Z,100717.81
2019-03-18T07:05:53.851Z,100710.19
2019-03-18T07:08:22.455Z,100720.20
2019-03-18T07:10:53.373Z,100720.34
2019-03-18T07:13:21.942Z,100721.87
2019-03-18T07:15:50.869Z,100723.67
2019-03-18T07:18:19.542Z,100725.64
2019-03-18T07:20:48.322Z,100738.97
2019-03-18T07:23:17.144Z,100735.06
2019-03-18T07:25:45.793Z,100735.08
2019-03-18T07:28:14.357Z,100736.05
2019-03-18T07:30:44.009Z,100753.17
2019-03-18T07:33:12.818Z,100758.67
2019-03-18T07:35:42.609Z,100766.51
2019-03-18T07:38:11.492Z,100767.84
2019-03-18T07:40:40.058Z,100770.91
2019-03-18T07:43:08.739Z,100771.24
2019-03-18T07:45:37.412Z,100777.44
2019-03-18T07:48:06.719Z,100772.52
2019-03-18T07:50:35.526Z,100785.79
2019-03-18T07:53:04.547Z,100780.02
2019-03-18T07:55:33.320Z,100794.09
2019-03-18T07:58:01.933Z,100797.97
2019-03-18T08:00:30.712Z,100785.69
2019-03-18T08:02:59.379Z,100801.80
2019-03-18T08:05:28.005Z,100799.81
2019-03-18T08:07:56.597Z,100806.20
2019-03-18T08:10:25.163Z,100809.49
2019-03-18T08:12:54.098Z,100814.76
2019-03-18T08:15:22.662Z,100813.95
2019-03-18T08:17:51.319Z,100816.61
2019-03-18T08:20:19.963Z,100815.63
2019-03-18T08:22:48.542Z,100820.97
2019-03-18T08:25:17.093Z,100828.19
2019-03-18T08:27:46.043Z,100826.23
2019-03-18T08:30:14.818Z,100841.05
2019-03-18T08:32:43.499Z,100837.84
2019-03-18T08:35:12.157Z,100831.18
2019-03-18T08:37:41.005Z,100838.53
2019-03-18T08:40:09.784Z,100842.11
2019-03-18T08:42:38.570Z,100842.17
2019-03-18T08:45:07.579Z,100837.57
2019-03-18T08:47:36.273Z,100844.56
2019-03-18T08:50:04.956Z,100854.97
2019-03-18T08:52:33.639Z,100850.56
2019-03-18T08:55:02.219Z,100844.20
2019-03-18T08:57:30.875Z,100851.20
2019-03-18T08:59:59.680Z,100851.05
2019-03-18T09:02:28.349Z,100862.79
2019-03-18T09:04:57.022Z,100873.09
2019-03-18T09:07:25.717Z,100871.32
2019-03-18T09:09:54.472Z,100865.36
2019-03-18T09:12:23.225Z,100877.52
2019-03-18T09:14:51.796Z,100879.34
2019-03-18T09:17:20.332Z,100878.17
2019-03-18T09:19:48.967Z,100880.27
2019-03-18T09:22:17.701Z,100881.36
2019-03-18T09:24:46.337Z,100864.48
2019-03-18T09:27:15.142Z,100880.58
2019-03-18T09:29:43.724Z,100884.64
2019-03-18T09:32:12.602Z,100886.61
2019-03-18T09:34:41.383Z,100883.55
2019-03-18T09:37:10.683Z,100902.05
2019-03-18T09:39:39.468Z,100903.95
2019-03-18T09:42:08.113Z,100916.50
2019-03-18T09:44:36.834Z,100917.30
2019-03-18T09:47:05.403Z,100918.69
2019-03-18T09:49:34.214Z,100917.55
2019-03-18T09:52:02.990Z,100919.89
2019-03-18T09:54:31.585Z,100915.99
2019-03-18T09:57:00.245Z,100925.91
2019-03-18T09:59:28.888Z,100911.91
2019-03-18T10:01:57.514Z,100911.34
2019-03-18T10:04:26.127Z,100909.62
2019-03-18T10:06:54.699Z,100924.57
2019-03-18T10:09:23.477Z,100925.80
2019-03-18T10:11:52.029Z,100926.56
2019-03-18T10:14:20.778Z,100929.38
2019-03-18T10:16:49.308Z,100935.20
2019-03-18T10:19:17.916Z,100936.95
2019-03-18T10:21:46.510Z,100937.84
2019-03-18T10:24:15.074Z,100942.52
2019-03-18T10:26:43.781Z,100940.84
2019-03-18T10:29:12.500Z,100939.17
2019-03-18T10:31:41.136Z,100938.86
2019-03-18T10:34:09.700Z,100938.14
2019-03-18T10:36:38.516Z,100945.36
2019-03-18T10:39:07.408Z,100949.06
2019-03-18T10:41:35.959Z,100963.37
2019-03-18T10:44:04.758Z,100958.24
2019-03-18T10:46:33.431Z,100968.11
2019-03-18T10:49:01.996Z,100964.61
2019-03-18T10:51:31.896Z,100972.49
2019-03-18T10:54:00.754Z,100972.66
2019-03-18T10:56:29.462Z,100974.17
2019-03-18T10:58:58.046Z,100977.53
2019-03-18T11:01:26.592Z,100970.94
2019-03-18T11:03:55.767Z,100972.86
2019-03-18T11:06:24.979Z,100970.36
2019-03-18T11:08:53.530Z,100975.75
2019-03-18T11:11:22.200Z,100968.66
2019-03-18T11:13:50.881Z,100967.70
2019-03-18T11:16:19.429Z,100972.30
2019-03-18T11:18:48.130Z,100983.66
2019-03-18T11:21:16.808Z,100971.70
2019-03-18T11:23:45.407Z,100984.37
2019-03-18T11:26:13.983Z,100990.50
2019-03-18T11:28:42.658Z,100987.09
2019-03-18T11:31:11.413Z,100997.59
2019-03-18T11:33:40.058Z,100994.23
2019-03-18T11:36:08.634Z,100995.09
2019-03-18T11:38:37.303Z,101008.27
2019-03-18T11:41:06.007Z,101030.52
2019-03-18T11:43:34.870Z,101032.59
2019-03-18T11:46:03.636Z,101044.12
2019-03-18T11:48:32.344Z,101049.16
2019-03-18T11:51:00.912Z,101038.45
2019-03-18T11:53:29.699Z,101039.42
2019-03-18T11:55:58.346Z,101030.27
2019-03-18T11:58:27.398Z,101018.03
2019-03-18T12:00:56.195Z,101019.97
2019-03-18T12:03:24.881Z,101003.59
2019-03-18T12:05:53.461Z,101011.45
2019-03-18T12:08:22.109Z,101010.52
2019-03-18T12:10:50.725Z,101018.06
2019-03-18T12:13:19.281Z,101007.95
2019-03-18T12:15:47.828Z,101002.59
2019-03-18T12:18:16.553Z,101009.56
2019-03-18T12:20:45.224Z,101004.38
2019-03-18T12:23:13.771Z,100999.34
2019-03-18T12:25:42.408Z,101008.50
2019-03-18T12:28:10.962Z,101000.74
2019-03-18T12:30:39.607Z,100996.84
2019-03-18T12:33:08.261Z,101002.08
2019-03-18T12:35:36.930Z,101010.81
2019-03-18T12:38:05.651Z,101004.91
2019-03-18T12:40:34.321Z,101004.64
2019-03-18T12:43:03.085Z,101004.69
2019-03-18T12:45:31.620Z,101002.83
2019-03-18T12:48:00.311Z,101000.46
2019-03-18T12:50:43.521Z,101003.29
2019-03-18T12:52:59.527Z,101014.15
2019-03-18T12:55:28.195Z,101028.40
2019-03-18T12:57:56.751Z,101018.45
2019-03-18T13:00:25.430Z,101018.18
2019-03-18T13:02:54.179Z,101020.56
2019-03-18T13:05:23.112Z,101036.15
2019-03-18T13:07:51.741Z,101021.19
2019-03-18T13:10:21.785Z,101031.84
2019-03-18T13:12:50.992Z,101029.09
2019-03-18T13:15:19.954Z,101040.06
2019-03-18T13:17:48.693Z,101026.76
2019-03-18T13:20:17.528Z,101034.30
2019-03-18T13:22:46.077Z,101033.95
2019-03-18T13:25:15.002Z,101045.58
2019-03-18T13:27:43.652Z,101046.17
2019-03-18T13:30:15.385Z,101046.13
2019-03-18T13:32:44.331Z,101029.65
2019-03-18T13:35:13.398Z,101063.03
2019-03-18T13:37:42.265Z,101052.62
2019-03-18T13:40:11.150Z,101046.56
2019-03-18T13:42:39.680Z,101047.36
2019-03-18T13:45:10.570Z,101040.66
2019-03-18T13:47:39.142Z,101037.69
2019-03-18T13:50:09.186Z,101040.47
2019-03-18T13:52:37.825Z,101040.22
2019-03-18T13:55:06.820Z,101041.27
2019-03-18T13:57:35.568Z,101040.91
2019-03-18T14:00:06.674Z,101041.73
2019-03-18T14:02:35.354Z,101038.47
2019-03-18T14:05:04.874Z,101027.88
2019-03-18T14:07:33.514Z,101042.30
2019-03-18T14:10:02.809Z,101030.70
2019-03-18T14:12:31.342Z,101042.73
2019-03-18T14:14:59.984Z,101051.29
2019-03-18T14:17:28.660Z,101054.13
2019-03-18T14:19:57.216Z,101065.78
2019-03-18T14:22:25.768Z,101069.54
2019-03-18T14:24:54.330Z,101079.36
2019-03-18T14:27:22.876Z,101076.05
2019-03-18T14:29:51.447Z,101100.69
2019-03-18T14:32:20.029Z,101116.88
2019-03-18T14:34:48.575Z,101133.19
2019-03-18T14:37:17.201Z,101133.98
2019-03-18T14:39:45.802Z,101128.87
2019-03-18T14:42:14.549Z,101151.22
2019-03-18T14:44:43.083Z,101151.05
2019-03-18T14:47:12.007Z,101149.72
2019-03-18T14:49:40.557Z,101146.52
2019-03-18T14:52:09.108Z,101149.84
2019-03-18T14:54:37.669Z,101156.12
2019-03-18T14:57:06.334Z,101159.63
2019-03-18T14:59:34.884Z,101163.13
2019-03-18T15:02:03.669Z,101169.35
2019-03-18T15:04:32.206Z,101172.06
2019-03-18T15:07:00.879Z,101170.75
2019-03-18T15:09:29.462Z,101173.52
2019-03-18T15:11:58.116Z,101168.38
2019-03-18T15:14:26.767Z,101166.89
2019-03-18T15:16:55.430Z,101168.77
2019-03-18T15:19:24.145Z,101162.66
2019-03-18T15:21:58.262Z,101166.67
2019-03-18T15:24:23.169Z,101166.34
2019-03-18T15:26:51.724Z,101164.91
2019-03-18T15:29:20.272Z,101157.58
2019-03-18T15:31:48.853Z,101163.83
2019-03-18T15:34:17.403Z,101168.66
2019-03-18T15:36:45.981Z,101167.14
2019-03-18T15:39:14.546Z,101168.58
2019-03-18T15:41:43.096Z,101177.77
2019-03-18T15:44:11.658Z,101174.92
2019-03-18T15:46:40.235Z,101180.59
2019-03-18T15:49:08.883Z,101181.34
2019-03-18T15:51:37.436Z,101176.09
2019-03-18T15:54:06.207Z,101183.91
2019-03-18T15:56:34.769Z,101191.59
2019-03-18T15:59:03.565Z,101184.50
2019-03-18T16:01:32.360Z,101188.09
2019-03-18T16:04:01.010Z,101189.12
2019-03-18T16:06:29.668Z,101190.09
2019-03-18T16:08:58.240Z,101192.84
2019-03-18T16:11:26.823Z,101198.20
2019-03-18T16:13:55.375Z,101200.47
2019-03-18T16:16:23.952Z,101207.69
2019-03-18T16:18:52.495Z,101210.41
2019-03-18T16:21:21.043Z,101209.31
2019-03-18T16:23:49.679Z,101217.25
2019-03-18T16:26:18.401Z,101220.63
2019-03-18T16:28:47.158Z,101225.33
2019-03-18T16:31:15.723Z,101235.21
2019-03-18T16:33:44.266Z,101233.58
2019-03-18T16:36:12.932Z,101238.13
2019-03-18T16:38:41.916Z,101238.52
2019-03-18T16:41:10.589Z,101237.39
2019-03-18T16:43:39.152Z,101248.52
2019-03-18T16:46:07.727Z,101257.41
2019-03-18T16:48:36.263Z,101248.38
2019-03-18T16:51:04.848Z,101260.55
2019-03-18T16:53:33.403Z,101262.69
2019-03-18T16:56:01.969Z,101263.72
2019-03-18T16:58:30.618Z,101271.64
2019-03-18T17:00:59.194Z,101268.23
2019-03-18T17:03:27.735Z,101281.39
2019-03-18T17:05:56.287Z,101281.48
2019-03-18T17:08:24.856Z,101279.02
2019-03-18T17:10:53.608Z,101284.86
2019-03-18T17:13:22.154Z,101281.39
2019-03-18T17:15:50.845Z,101283.80
2019-03-18T17:18:19.452Z,101281.63
2019-03-18T17:20:47.947Z,101293.80
2019-03-18T17:23:16.511Z,101295.19
2019-03-18T17:25:45.380Z,101293.01
2019-03-18T17:28:13.958Z,101304.02
2019-03-18T17:30:42.627Z,101302.25
2019-03-18T17:33:11.296Z,101308.92
2019-03-18T17:35:39.811Z,101318.52
2019-03-18T17:38:08.398Z,101322.81
2019-03-18T17:40:36.945Z,101325.09
2019-03-18T17:43:05.542Z,101323.80
2019-03-18T17:45:34.249Z,101331.75
2019-03-18T17:48:03.009Z,101332.74
2019-03-18T17:50:31.547Z,101338.80
2019-03-18T17:53:03.568Z,101340.03
2019-03-18T17:55:30.747Z,101340.50
2019-03-18T17:57:59.516Z,101338.78
2019-03-18T18:00:33.419Z,101343.50
2019-03-18T18:03:01.998Z,101348.64
2019-03-18T18:05:30.673Z,101354.48
2019-03-18T18:07:59.215Z,101360.45
2019-03-18T18:10:27.879Z,101368.99
2019-03-18T18:12:56.869Z,101372.20
2019-03-18T18:15:25.550Z,101366.50
2019-03-18T18:17:54.320Z,101363.46
2019-03-18T18:20:22.999Z,101371.34
2019-03-18T18:22:51.751Z,101378.58
2019-03-18T18:25:20.400Z,101375.81
2019-03-18T18:27:48.993Z,101389.00
2019-03-18T18:30:17.523Z,101390.75
2019-03-18T18:32:46.307Z,101381.39
2019-03-18T18:35:15.078Z,101397.02
2019-03-18T18:37:43.634Z,101392.57
2019-03-18T18:40:12.318Z,101404.62
2019-03-18T18:42:40.984Z,101406.55
2019-03-18T18:45:10.047Z,101399.15
2019-03-18T18:47:38.840Z,101402.22
2019-03-18T18:50:07.809Z,101415.53
2019-03-18T18:52:36.641Z,101408.51
2019-03-18T18:55:05.608Z,101414.98
2019-03-18T18:57:34.208Z,101424.46
2019-03-18T19:00:04.445Z,101428.73
2019-03-18T19:02:33.531Z,101426.11
2019-03-18T19:05:02.439Z,101431.38
2019-03-18T19:07:30.995Z,101436.59
2019-03-18T19:09:59.553Z,101437.17
2019-03-18T19:12:28.139Z,101438.78
2019-03-18T19:14:56.901Z,101439.20
2019-03-18T19:17:25.461Z,101442.47
2019-03-18T19:19:54.040Z,101452.14
2019-03-18T19:22:22.690Z,101454.20
2019-03-18T19:24:51.263Z,101446.05
2019-03-18T19:27:19.917Z,101453.19
2019-03-18T19:29:48.562Z,101456.27
2019-03-18T19:32:17.139Z,101457.34
2019-03-18T19:34:46.356Z,101460.84
2019-03-18T19:37:14.896Z,101463.59
2019-03-18T19:39:44.093Z,101473.86
2019-03-18T19:42:12.747Z,101478.63
2019-03-18T19:44:41.436Z,101477.78
2019-03-18T19:47:10.113Z,101480.50
2019-03-18T19:49:38.724Z,101480.23
2019-03-18T19:52:07.271Z,101483.61
2019-03-18T19:54:35.967Z,101492.23
2019-03-18T19:57:04.648Z,101489.69
2019-03-18T19:59:33.540Z,101494.89
2019-03-18T20:02:02.209Z,101500.84
2019-03-18T20:04:31.639Z,101498.30
2019-03-18T20:07:00.537Z,101507.09
2019-03-18T20:09:29.337Z,101515.05
2019-03-18T20:11:57.895Z,101513.02
2019-03-18T20:14:26.474Z,101514.70
2019-03-18T20:16:55.311Z,101520.56
2019-03-18T20:19:25.714Z,101523.02
2019-03-18T20:21:54.393Z,101526.39
2019-03-18T20:24:23.049Z,101526.70
2019-03-18T20:26:51.656Z,101527.85
2019-03-18T20:29:20.305Z,101534.95
2019-03-18T20:31:48.948Z,101542.79
2019-03-18T20:34:17.626Z,101546.74
2019-03-18T20:36:46.298Z,101554.32
2019-03-18T20:39:14.874Z,101555.08
2019-03-18T20:41:43.572Z,101560.09
2019-03-18T20:44:12.227Z,101561.08
2019-03-18T20:46:40.769Z,101567.80
2019-03-18T20:49:09.581Z,101569.41
2019-03-18T20:51:38.303Z,101563.58
2019-03-18T20:54:12.101Z,101564.32
2019-03-18T20:56:37.989Z,101557.50
2019-03-18T20:59:06.641Z,101565.87
2019-03-18T21:01:35.307Z,101572.30
2019-03-18T21:04:04.362Z,101570.27
2019-03-18T21:06:33.054Z,101581.70
2019-03-18T21:09:01.649Z,101579.06
2019-03-18T21:11:30.231Z,101585.41
2019-03-18T21:13:58.900Z,101586.87
2019-03-18T21:16:27.455Z,101583.95
2019-03-18T21:18:56.241Z,101599.91
2019-03-18T21:21:24.779Z,101611.30
2019-03-18T21:23:53.457Z,101605.40
2019-03-18T21:26:22.168Z,101604.48
2019-03-18T21:28:51.050Z,101608.94
2019-03-18T21:31:19.759Z,101615.70
2019-03-18T21:33:48.596Z,101619.31
2019-03-18T21:36:32.732Z,101620.23
2019-03-18T21:38:47.873Z,101623.36
2019-03-18T21:41:16.633Z,101620.80
2019-03-18T21:43:45.234Z,101627.74
2019-03-18T21:46:13.904Z,101630.05
2019-03-18T21:48:42.859Z,101637.52
2019-03-18T21:51:11.557Z,101636.09
2019-03-18T21:53:40.101Z,101636.00
2019-03-18T21:56:08.690Z,101641.36
2019-03-18T21:58:37.232Z,101635.20
2019-03-18T22:01:05.936Z,101638.92
2019-03-18T22:03:34.993Z,101636.03
2019-03-18T22:06:03.780Z,101644.91
2019-03-18T22:08:32.323Z,101644.34
2019-03-18T22:11:01.159Z,101642.67
2019-03-18T22:13:29.706Z,101644.88
2019-03-18T22:15:58.271Z,101655.61
2019-03-18T22:18:26.851Z,101648.80
2019-03-18T22:20:55.388Z,101648.55
2019-03-18T22:23:23.957Z,101651.02
2019-03-18T22:25:52.515Z,101654.91
2019-03-18T22:28:21.169Z,101656.22
2019-03-18T22:30:49.731Z,101646.89
2019-03-18T22:33:18.317Z,101654.23
2019-03-18T22:35:47.102Z,101654.19
2019-03-18T22:38:15.651Z,101656.98
2019-03-18T22:40:44.559Z,101652.55
2019-03-18T22:43:13.113Z,101661.55
2019-03-18T22:45:41.923Z,101668.84
2019-03-18T22:48:10.592Z,101673.06
2019-03-18T22:50:39.340Z,101679.28
2019-03-18T22:53:07.957Z,101680.75
2019-03-18T22:55:36.599Z,101680.72
2019-03-18T22:58:05.265Z,101689.81
2019-03-18T23:00:42.504Z,101680.89
2019-03-18T23:03:11.289Z,101684.60
2019-03-18T23:05:40.148Z,101688.61
2019-03-18T23:08:08.699Z,101698.00
2019-03-18T23:10:37.616Z,101692.30
2019-03-18T23:13:06.278Z,101696.17
2019-03-18T23:15:34.987Z,101696.62
2019-03-18T23:18:03.751Z,101693.28
2019-03-18T23:20:32.483Z,101694.87
2019-03-18T23:23:01.409Z,101700.91
2019-03-18T23:25:30.199Z,101704.36
2019-03-18T23:27:58.908Z,101705.45
2019-03-18T23:30:27.568Z,101704.98
2019-03-18T23:32:56.494Z,101712.70
2019-03-18T23:35:25.039Z,101712.24
2019-03-18T23:37:53.749Z,101714.76
2019-03-18T23:40:22.429Z,101710.84
2019-03-18T23:42:51.132Z,101709.09
2019-03-18T23:45:19.792Z,101710.56
2019-03-18T23:47:48.775Z,101711.84
2019-03-18T23:50:17.472Z,101714.47
2019-03-18T23:52:46.082Z,101723.20
2019-03-18T23:55:19.658Z,101730.55
2019-03-18T23:57:45.103Z,101726.47
